Time;durP1;ratioP1;P1;durP2;ratioP2;P2;SDS_P1;SDS_P2;PMS_P1;PMS_P2;Temp;Humidity;BMP_temperature;BMP_pressure;BME280_temperature;BME280_humidity;BME280_pressure;Samples;Min_cycle;Max_cycle;Signal;HPM_P1;HPM_P2
2022/11/21 00:01:02;;;;;;;10.63;3.83;;;;;;;;;;5113461;28;20204;-78
2022/11/21 00:03:28;;;;;;;15.50;3.87;;;;;;;;;;5113926;28;20219;-77
2022/11/21 00:05:55;;;;;;;11.03;3.70;;;;;;;;;;5114187;28;20206;-78
2022/11/21 00:08:22;;;;;;;16.80;3.70;;;;;;;;;;5113957;28;20191;-77
2022/11/21 00:10:49;;;;;;;19.70;4.73;;;;;;;;;;5113841;28;20196;-78
2022/11/21 00:13:17;;;;;;;16.37;5.10;;;;;;;;;;5114005;28;20883;-77
2022/11/21 00:15:46;;;;;;;13.20;4.60;;;;;;;;;;5113464;28;20777;-78
2022/11/21 00:18:13;;;;;;;16.80;5.40;;;;;;;;;;5113814;28;20244;-77
2022/11/21 00:20:40;;;;;;;16.73;5.73;;;;;;;;;;5113552;28;20248;-77
2022/11/21 00:23:08;;;;;;;16.87;4.87;;;;;;;;;;5113377;28;20647;-77
2022/11/21 00:25:35;;;;;;;7.40;4.20;;;;;;;;;;5113660;28;20269;-77
2022/11/21 00:28:02;;;;;;;13.80;4.40;;;;;;;;;;5113539;28;20200;-77
2022/11/21 00:30:29;;;;;;;10.97;3.97;;;;;;;;;;5113274;28;20277;-77
2022/11/21 00:32:58;;;;;;;17.40;4.07;;;;;;;;;;5113603;28;20704;-78
2022/11/21 00:35:24;;;;;;;16.07;4.10;;;;;;;;;;5113406;28;20196;-78
2022/11/21 00:37:51;;;;;;;10.63;3.93;;;;;;;;;;5113367;28;20195;-77
2022/11/21 00:40:18;;;;;;;17.87;4.20;;;;;;;;;;5113233;28;20204;-77
2022/11/21 00:42:45;;;;;;;11.10;3.77;;;;;;;;;;5112817;28;20219;-80
2022/11/21 00:45:12;;;;;;;13.03;4.50;;;;;;;;;;5113020;28;20207;-78
2022/11/21 00:47:39;;;;;;;12.90;3.60;;;;;;;;;;5113353;28;20584;-77
2022/11/21 00:50:07;;;;;;;12.53;3.47;;;;;;;;;;5113129;28;20203;-78
2022/11/21 00:52:34;;;;;;;19.33;3.73;;;;;;;;;;5113165;28;20207;-78
2022/11/21 00:55:01;;;;;;;14.33;3.77;;;;;;;;;;5112867;28;20260;-77
2022/11/21 00:57:28;;;;;;;14.80;5.00;;;;;;;;;;5112820;28;20222;-78
2022/11/21 00:59:55;;;;;;;15.00;3.27;;;;;;;;;;5113189;28;20567;-78
2022/11/21 01:02:21;;;;;;;8.77;3.83;;;;;;;;;;5113070;28;20315;-77
2022/11/21 01:04:48;;;;;;;20.77;4.43;;;;;;;;;;5112598;28;20203;-78
2022/11/21 01:07:16;;;;;;;9.83;3.37;;;;;;;;;;5113201;28;20199;-77
2022/11/21 01:09:43;;;;;;;13.43;4.10;;;;;;;;;;5112455;28;20200;-78
2022/11/21 01:12:10;;;;;;;13.30;3.83;;;;;;;;;;5112887;28;20199;-79
2022/11/21 01:14:36;;;;;;;13.63;3.47;;;;;;;;;;5112518;28;20905;-78
2022/11/21 01:17:03;;;;;;;13.27;3.80;;;;;;;;;;5112550;28;20252;-78
2022/11/21 01:19:30;;;;;;;12.80;3.30;;;;;;;;;;5112455;28;20751;-78
2022/11/21 01:21:56;;;;;;;8.43;3.50;;;;;;;;;;5112617;28;20663;-78
2022/11/21 01:24:25;;;;;;;13.83;3.30;;;;;;;;;;5112495;28;20236;-79
2022/11/21 01:26:53;;;;;;;14.87;3.93;;;;;;;;;;5112305;28;20204;-78
2022/11/21 01:29:20;;;;;;;10.77;3.77;;;;;;;;;;5112370;28;20227;-77
2022/11/21 01:31:46;;;;;;;22.13;3.97;;;;;;;;;;5112472;28;20210;-78
2022/11/21 01:34:14;;;;;;;14.10;4.30;;;;;;;;;;5112475;28;20236;-78
2022/11/21 01:36:41;;;;;;;10.87;3.50;;;;;;;;;;5111980;28;20668;-78
2022/11/21 01:39:09;;;;;;;8.73;3.80;;;;;;;;;;5110371;28;20207;-78
2022/11/21 01:41:40;;;;;;;12.27;3.07;;;;;;;;;;5112062;28;20216;-78
2022/11/21 01:44:14;;;;;;;11.07;3.93;;;;;;;;;;5112225;28;20253;-78
2022/11/21 01:46:41;;;;;;;11.40;3.30;;;;;;;;;;5112215;28;20194;-78
2022/11/21 01:49:10;;;;;;;12.03;3.97;;;;;;;;;;5111972;28;20200;-78
2022/11/21 01:51:41;;;;;;;15.13;3.20;;;;;;;;;;5111476;28;20200;-78
2022/11/21 01:54:11;;;;;;;6.57;2.77;;;;;;;;;;5111888;28;20590;-77
2022/11/21 01:56:41;;;;;;;9.10;3.07;;;;;;;;;;5111012;28;20592;-78
2022/11/21 02:02:35;;;;;;;15.50;3.13;;;;;;;;;;5111458;28;20728;-78
2022/11/21 02:05:03;;;;;;;13.37;3.87;;;;;;;;;;5111747;28;20244;-78
2022/11/21 02:07:34;;;;;;;11.40;3.47;;;;;;;;;;5111925;28;20199;-84
2022/11/21 02:10:02;;;;;;;12.23;2.93;;;;;;;;;;5111867;28;20199;-80
2022/11/21 02:12:33;;;;;;;7.53;3.30;;;;;;;;;;5111550;28;20203;-79
2022/11/21 02:15:00;;;;;;;11.83;2.90;;;;;;;;;;5111581;28;20196;-79
2022/11/21 02:17:27;;;;;;;9.53;3.53;;;;;;;;;;5111965;28;20493;-79
2022/11/21 02:19:57;;;;;;;14.87;4.80;;;;;;;;;;5111156;28;20195;-79
2022/11/21 02:22:30;;;;;;;11.00;2.93;;;;;;;;;;5111321;28;20223;-79
2022/11/21 02:25:11;;;;;;;12.00;3.23;;;;;;;;;;5111079;28;20207;-77
2022/11/21 02:27:39;;;;;;;6.87;3.13;;;;;;;;;;5111737;28;20282;-79
2022/11/21 02:30:08;;;;;;;7.03;2.83;;;;;;;;;;5110919;28;20640;-79
2022/11/21 02:32:37;;;;;;;6.50;2.37;;;;;;;;;;5111582;28;20203;-79
2022/11/21 02:35:05;;;;;;;6.17;2.70;;;;;;;;;;5111390;28;20204;-79
2022/11/21 02:37:33;;;;;;;6.80;2.20;;;;;;;;;;5110727;28;20593;-80
2022/11/21 02:40:02;;;;;;;6.47;2.40;;;;;;;;;;5111361;28;20586;-78
2022/11/21 02:42:34;;;;;;;5.50;2.30;;;;;;;;;;5111171;28;20223;-79
2022/11/21 02:45:06;;;;;;;4.77;3.20;;;;;;;;;;5100908;28;20205;-79
2022/11/21 02:47:34;;;;;;;5.80;2.27;;;;;;;;;;5107571;28;20199;-78
2022/11/21 02:50:06;;;;;;;5.77;2.10;;;;;;;;;;5110940;28;20572;-78
2022/11/21 02:52:33;;;;;;;5.10;1.87;;;;;;;;;;5099243;28;20199;-80
2022/11/21 02:54:59;;;;;;;6.90;2.07;;;;;;;;;;5111079;28;20283;-79
2022/11/21 02:57:26;;;;;;;9.13;2.23;;;;;;;;;;5110937;28;20222;-78
2022/11/21 02:59:54;;;;;;;4.97;2.20;;;;;;;;;;5110932;28;20221;-78
2022/11/21 03:02:21;;;;;;;6.93;1.77;;;;;;;;;;5110493;28;20231;-80
2022/11/21 03:04:48;;;;;;;2.97;1.43;;;;;;;;;;5110675;28;20230;-78
2022/11/21 03:07:15;;;;;;;7.17;2.20;;;;;;;;;;5110983;28;20202;-78
2022/11/21 03:09:42;;;;;;;7.37;2.27;;;;;;;;;;5117250;28;20682;-78
2022/11/21 03:12:09;;;;;;;6.83;2.30;;;;;;;;;;5118013;28;20206;-79
2022/11/21 03:14:37;;;;;;;4.87;3.10;;;;;;;;;;5117411;28;20195;-78
2022/11/21 03:17:05;;;;;;;5.90;2.60;;;;;;;;;;5117072;28;20232;-83
2022/11/21 03:19:32;;;;;;;8.07;2.53;;;;;;;;;;5118029;28;20199;-78
2022/11/21 03:21:58;;;;;;;3.57;2.20;;;;;;;;;;5117511;28;20260;-78
2022/11/21 03:24:25;;;;;;;10.20;2.77;;;;;;;;;;5117032;28;20203;-78
2022/11/21 03:26:52;;;;;;;9.57;3.10;;;;;;;;;;5114509;28;20593;-78
2022/11/21 03:29:19;;;;;;;7.27;3.10;;;;;;;;;;5117739;28;20203;-78
2022/11/21 03:31:45;;;;;;;9.47;2.33;;;;;;;;;;5117366;28;20210;-79
2022/11/21 03:34:14;;;;;;;4.67;2.57;;;;;;;;;;5117916;28;20308;-78
2022/11/21 03:36:42;;;;;;;5.37;2.37;;;;;;;;;;5116919;28;20206;-78
2022/11/21 03:39:09;;;;;;;5.17;2.87;;;;;;;;;;5117140;28;20199;-78
2022/11/21 03:41:36;;;;;;;6.30;2.80;;;;;;;;;;5117286;28;20195;-79
2022/11/21 03:44:05;;;;;;;5.50;1.70;;;;;;;;;;5117414;28;20586;-79
2022/11/21 03:46:33;;;;;;;7.20;2.50;;;;;;;;;;5117424;28;20203;-78
2022/11/21 03:49:00;;;;;;;10.47;2.00;;;;;;;;;;5116992;28;20286;-79
2022/11/21 03:51:28;;;;;;;4.00;1.83;;;;;;;;;;5117329;28;20192;-78
2022/11/21 03:53:55;;;;;;;8.70;2.47;;;;;;;;;;5117324;28;20211;-79
2022/11/21 03:56:23;;;;;;;8.53;2.13;;;;;;;;;;5116824;28;20230;-79
2022/11/21 03:58:49;;;;;;;4.87;2.60;;;;;;;;;;5117078;28;20601;-79
2022/11/21 04:01:17;;;;;;;5.03;2.27;;;;;;;;;;5116918;28;20199;-78
2022/11/21 04:03:43;;;;;;;8.27;2.67;;;;;;;;;;5116795;28;20620;-78
2022/11/21 04:06:11;;;;;;;8.97;2.83;;;;;;;;;;5117046;28;20199;-79
2022/11/21 04:08:40;;;;;;;4.10;2.50;;;;;;;;;;5117024;28;20191;-79
2022/11/21 04:11:07;;;;;;;10.93;2.93;;;;;;;;;;5117181;28;20253;-79
2022/11/21 04:13:34;;;;;;;7.13;2.33;;;;;;;;;;5117242;28;20203;-78
2022/11/21 04:16:01;;;;;;;7.23;3.00;;;;;;;;;;5117030;28;20203;-79
2022/11/21 04:18:28;;;;;;;9.07;2.93;;;;;;;;;;5117068;28;20222;-79
2022/11/21 04:20:56;;;;;;;8.17;3.77;;;;;;;;;;5113671;28;20204;-78
2022/11/21 04:23:23;;;;;;;14.10;3.60;;;;;;;;;;5113504;28;20220;-78
2022/11/21 04:25:52;;;;;;;7.13;2.30;;;;;;;;;;5104973;28;20579;-79
2022/11/21 04:28:18;;;;;;;5.83;3.20;;;;;;;;;;5109519;28;20208;-78
2022/11/21 04:30:45;;;;;;;12.50;3.27;;;;;;;;;;5097256;28;20200;-78
2022/11/21 04:33:13;;;;;;;5.63;2.03;;;;;;;;;;5098398;28;20678;-79
2022/11/21 04:35:40;;;;;;;9.10;2.57;;;;;;;;;;5113228;28;20214;-78
2022/11/21 04:38:06;;;;;;;9.63;3.00;;;;;;;;;;5113436;28;20318;-78
2022/11/21 04:40:34;;;;;;;7.27;2.70;;;;;;;;;;5112951;28;20203;-79
2022/11/21 04:43:03;;;;;;;6.53;2.67;;;;;;;;;;5113333;28;20215;-78
2022/11/21 04:45:30;;;;;;;9.10;3.53;;;;;;;;;;5113485;28;20206;-78
2022/11/21 04:47:57;;;;;;;9.47;2.93;;;;;;;;;;5098966;28;20256;-78
2022/11/21 04:50:23;;;;;;;9.23;2.63;;;;;;;;;;5095205;28;20204;-78
2022/11/21 04:52:51;;;;;;;11.63;3.00;;;;;;;;;;5112458;28;20244;-78
2022/11/21 04:55:18;;;;;;;7.00;3.00;;;;;;;;;;5113009;28;20246;-78
2022/11/21 04:57:45;;;;;;;11.23;4.13;;;;;;;;;;5112728;28;20674;-78
2022/11/21 05:00:15;;;;;;;3.67;2.20;;;;;;;;;;5112877;28;20207;-78
2022/11/21 05:02:42;;;;;;;13.70;4.97;;;;;;;;;;5113247;28;20234;-79
2022/11/21 05:05:09;;;;;;;5.87;3.30;;;;;;;;;;5112966;28;20200;-78
2022/11/21 05:07:36;;;;;;;17.03;7.63;;;;;;;;;;5112707;28;20196;-79
2022/11/21 05:10:03;;;;;;;9.53;5.87;;;;;;;;;;5109700;28;22082;-80
2022/11/21 05:15:16;;;;;;;6.50;4.87;;;;;;;;;;5112542;28;21028;-79
2022/11/21 05:17:42;;;;;;;6.07;3.13;;;;;;;;;;5112734;28;20195;-78
2022/11/21 05:20:10;;;;;;;12.53;4.07;;;;;;;;;;5112224;28;20200;-78
2022/11/21 05:22:37;;;;;;;9.50;2.80;;;;;;;;;;5111653;28;20200;-78
2022/11/21 05:25:05;;;;;;;11.73;4.00;;;;;;;;;;5112335;28;20699;-78
2022/11/21 05:27:32;;;;;;;13.30;7.97;;;;;;;;;;5110860;28;20212;-79
2022/11/21 05:29:58;;;;;;;16.00;11.57;;;;;;;;;;5111777;28;20206;-78
2022/11/21 05:32:27;;;;;;;55.50;35.53;;;;;;;;;;5108921;28;20210;-78
2022/11/21 05:34:54;;;;;;;44.70;34.47;;;;;;;;;;5110968;28;20207;-78
2022/11/21 05:37:21;;;;;;;35.90;22.73;;;;;;;;;;5112486;28;20195;-78
2022/11/21 05:39:48;;;;;;;18.20;13.93;;;;;;;;;;5111831;28;20279;-78
2022/11/21 05:42:14;;;;;;;16.80;11.43;;;;;;;;;;5112007;28;20201;-78
2022/11/21 05:44:40;;;;;;;10.90;3.67;;;;;;;;;;5111885;28;20320;-82
2022/11/21 05:47:07;;;;;;;19.80;14.63;;;;;;;;;;5111948;28;20219;-78
2022/11/21 05:49:35;;;;;;;21.93;14.87;;;;;;;;;;5111867;28;20200;-79
2022/11/21 05:52:02;;;;;;;31.13;18.83;;;;;;;;;;5112127;28;20208;-79
2022/11/21 05:54:28;;;;;;;19.13;11.57;;;;;;;;;;5112116;28;20210;-78
2022/11/21 05:56:55;;;;;;;18.43;11.40;;;;;;;;;;5111892;28;20201;-78
2022/11/21 05:59:22;;;;;;;5.27;3.37;;;;;;;;;;5111977;28;20613;-78
2022/11/21 06:04:33;;;;;;;6.43;5.17;;;;;;;;;;5111417;28;20728;-78
2022/11/21 06:07:04;;;;;;;14.83;8.43;;;;;;;;;;5111802;28;20204;-78
2022/11/21 06:09:31;;;;;;;34.23;23.07;;;;;;;;;;5111473;28;20386;-78
2022/11/21 06:11:58;;;;;;;45.30;34.00;;;;;;;;;;5111453;28;20212;-78
2022/11/21 06:14:25;;;;;;;55.07;43.27;;;;;;;;;;5111441;28;20191;-78
2022/11/21 06:16:51;;;;;;;13.87;12.53;;;;;;;;;;5111491;28;20206;-78
2022/11/21 06:19:18;;;;;;;14.37;9.47;;;;;;;;;;5111165;28;20206;-80
2022/11/21 06:21:45;;;;;;;9.57;7.53;;;;;;;;;;5111561;28;20202;-78
2022/11/21 06:24:13;;;;;;;9.00;4.93;;;;;;;;;;5111503;28;20655;-78
2022/11/21 06:26:40;;;;;;;5.77;4.03;;;;;;;;;;5110991;28;20219;-78
2022/11/21 06:29:10;;;;;;;7.30;3.10;;;;;;;;;;5111101;28;20215;-78
2022/11/21 06:31:37;;;;;;;10.20;4.00;;;;;;;;;;5111257;28;20203;-78
2022/11/21 06:34:03;;;;;;;11.60;3.70;;;;;;;;;;5098393;28;20257;-78
2022/11/21 06:36:30;;;;;;;9.80;4.50;;;;;;;;;;5090547;28;20204;-79
2022/11/21 06:38:57;;;;;;;9.60;4.47;;;;;;;;;;5100043;28;20646;-78
2022/11/21 06:41:29;;;;;;;11.90;5.70;;;;;;;;;;5110501;28;20203;-78
2022/11/21 06:43:55;;;;;;;18.73;5.30;;;;;;;;;;5110624;28;20314;-78
2022/11/21 06:46:22;;;;;;;9.70;4.30;;;;;;;;;;5110976;28;20196;-79
2022/11/21 06:48:49;;;;;;;8.90;5.63;;;;;;;;;;5111253;28;20203;-78
2022/11/21 06:51:18;;;;;;;17.63;9.87;;;;;;;;;;5110884;28;20203;-78
2022/11/21 06:53:45;;;;;;;18.77;10.50;;;;;;;;;;5110855;28;20203;-78
2022/11/21 06:56:12;;;;;;;12.97;7.83;;;;;;;;;;5110613;28;20200;-78
2022/11/21 06:58:40;;;;;;;6.47;3.60;;;;;;;;;;5110917;28;20211;-78
2022/11/21 07:01:08;;;;;;;13.43;7.90;;;;;;;;;;5110574;28;20207;-78
2022/11/21 07:03:35;;;;;;;7.00;3.13;;;;;;;;;;5110633;28;20231;-78
2022/11/21 07:06:03;;;;;;;7.13;3.70;;;;;;;;;;5110809;28;20724;-78
2022/11/21 07:08:30;;;;;;;8.10;4.30;;;;;;;;;;5110784;28;20199;-79
2022/11/21 07:11:01;;;;;;;9.03;3.80;;;;;;;;;;5111022;28;20205;-78
2022/11/21 07:13:27;;;;;;;8.60;3.30;;;;;;;;;;5096419;28;20192;-77
2022/11/21 07:16:00;;;;;;;11.60;4.93;;;;;;;;;;5110863;28;20212;-78
2022/11/21 07:18:27;;;;;;;13.23;3.57;;;;;;;;;;5110478;28;20681;-78
2022/11/21 07:20:58;;;;;;;6.30;4.07;;;;;;;;;;5110562;28;20196;-78
2022/11/21 07:23:24;;;;;;;9.63;4.63;;;;;;;;;;5110583;28;20287;-79
2022/11/21 07:25:51;;;;;;;7.57;3.93;;;;;;;;;;5110590;28;20201;-78
2022/11/21 07:28:18;;;;;;;8.30;2.97;;;;;;;;;;5110551;28;20209;-79
2022/11/21 07:30:45;;;;;;;8.00;3.30;;;;;;;;;;5110483;28;20207;-78
2022/11/21 07:33:13;;;;;;;13.67;4.93;;;;;;;;;;5110489;28;20207;-78
2022/11/21 07:35:41;;;;;;;13.30;3.83;;;;;;;;;;5110412;28;20204;-78
2022/11/21 07:38:08;;;;;;;5.27;2.30;;;;;;;;;;5110851;28;20201;-78
2022/11/21 07:40:34;;;;;;;10.53;2.67;;;;;;;;;;5110246;28;20706;-79
2022/11/21 07:43:02;;;;;;;7.47;3.13;;;;;;;;;;5110754;28;20249;-78
2022/11/21 07:45:29;;;;;;;7.40;3.63;;;;;;;;;;5110427;28;20694;-79
2022/11/21 07:47:59;;;;;;;8.87;2.97;;;;;;;;;;5110188;28;20195;-79
2022/11/21 07:50:27;;;;;;;9.33;2.93;;;;;;;;;;5110313;28;20205;-79
2022/11/21 07:52:58;;;;;;;10.87;3.87;;;;;;;;;;5110568;28;20196;-79
2022/11/21 07:55:25;;;;;;;8.33;3.20;;;;;;;;;;5111893;28;20285;-79
2022/11/21 07:57:58;;;;;;;4.23;2.27;;;;;;;;;;5114121;28;20638;-79
2022/11/21 08:00:25;;;;;;;17.90;12.00;;;;;;;;;;5114163;28;20283;-79
2022/11/21 08:02:52;;;;;;;17.53;11.43;;;;;;;;;;5113970;28;20239;-80
2022/11/21 08:05:19;;;;;;;9.93;3.63;;;;;;;;;;5114365;28;20248;-79
2022/11/21 08:07:47;;;;;;;6.27;2.83;;;;;;;;;;5114137;28;20206;-78
2022/11/21 08:10:14;;;;;;;8.23;3.53;;;;;;;;;;5113881;28;20197;-78
2022/11/21 08:12:41;;;;;;;9.27;3.80;;;;;;;;;;5113977;28;20206;-80
2022/11/21 08:15:08;;;;;;;7.50;4.20;;;;;;;;;;5113518;28;20624;-79
2022/11/21 08:17:35;;;;;;;14.17;3.70;;;;;;;;;;5113922;28;20225;-80
2022/11/21 08:20:03;;;;;;;7.03;3.00;;;;;;;;;;5113618;28;20207;-79
2022/11/21 08:22:29;;;;;;;7.70;3.40;;;;;;;;;;5113652;28;20210;-79
2022/11/21 08:24:58;;;;;;;5.90;3.37;;;;;;;;;;5113229;28;20232;-80
2022/11/21 08:27:24;;;;;;;9.37;2.73;;;;;;;;;;5114020;28;20232;-80
2022/11/21 08:29:51;;;;;;;11.70;3.40;;;;;;;;;;5113411;28;20204;-82
2022/11/21 08:32:18;;;;;;;7.83;3.10;;;;;;;;;;5113641;28;20204;-80
2022/11/21 08:34:45;;;;;;;17.00;11.37;;;;;;;;;;5113471;28;20213;-79
2022/11/21 08:37:11;;;;;;;18.43;12.83;;;;;;;;;;5113480;28;20212;-80
2022/11/21 08:39:38;;;;;;;10.47;3.77;;;;;;;;;;5113303;28;20209;-80
2022/11/21 08:42:06;;;;;;;7.70;3.20;;;;;;;;;;5113296;28;20596;-81
2022/11/21 08:44:34;;;;;;;14.93;2.40;;;;;;;;;;5113131;28;20223;-80
2022/11/21 08:47:01;;;;;;;10.20;2.73;;;;;;;;;;5113208;28;20199;-80
2022/11/21 08:49:28;;;;;;;3.73;2.77;;;;;;;;;;5113211;28;20714;-80
2022/11/21 08:51:55;;;;;;;4.47;2.07;;;;;;;;;;5113066;28;20209;-81
2022/11/21 08:54:23;;;;;;;7.03;1.83;;;;;;;;;;5113336;28;20218;-85
2022/11/21 08:56:50;;;;;;;5.57;1.83;;;;;;;;;;5113058;28;20202;-80
2022/11/21 08:59:19;;;;;;;6.93;1.83;;;;;;;;;;5113075;28;20214;-81
2022/11/21 09:01:45;;;;;;;3.67;1.63;;;;;;;;;;5113054;28;20570;-81
2022/11/21 09:04:12;;;;;;;4.37;1.53;;;;;;;;;;5105584;28;20219;-81
2022/11/21 09:06:39;;;;;;;2.37;1.20;;;;;;;;;;5113002;28;20211;-81
2022/11/21 09:09:07;;;;;;;4.80;1.33;;;;;;;;;;5112997;28;20203;-81
2022/11/21 09:11:35;;;;;;;2.67;0.83;;;;;;;;;;5112341;28;20215;-81
2022/11/21 09:19:32;;;;;;;4.90;1.33;;;;;;;;;;5112768;28;20256;-81
2022/11/21 09:21:58;;;;;;;2.63;1.00;;;;;;;;;;5098215;28;20226;-82
2022/11/21 09:24:26;;;;;;;2.87;1.00;;;;;;;;;;5113131;28;20222;-81
2022/11/21 09:26:53;;;;;;;3.17;1.23;;;;;;;;;;5112816;28;20230;-80
2022/11/21 09:29:19;;;;;;;1.00;0.80;;;;;;;;;;5112444;28;20200;-81
2022/11/21 09:31:47;;;;;;;2.00;1.03;;;;;;;;;;5112558;28;20207;-80
2022/11/21 09:34:14;;;;;;;7.07;1.47;;;;;;;;;;5111919;28;20659;-82
2022/11/21 09:36:41;;;;;;;3.40;1.17;;;;;;;;;;5112079;28;20207;-81
2022/11/21 09:39:08;;;;;;;6.13;1.47;;;;;;;;;;5112507;28;20211;-80
2022/11/21 09:41:54;;;;;;;0.90;0.87;;;;;;;;;;5112494;28;20204;-81
2022/11/21 09:44:39;;;;;;;2.17;0.90;;;;;;;;;;5112185;28;20284;-81
2022/11/21 09:47:19;;;;;;;1.37;0.97;;;;;;;;;;5111381;28;20206;-82
2022/11/21 09:49:48;;;;;;;1.93;1.20;;;;;;;;;;5111996;28;20218;-81
2022/11/21 09:52:17;;;;;;;1.17;1.03;;;;;;;;;;5112326;28;20740;-81
2022/11/21 09:54:48;;;;;;;6.00;1.40;;;;;;;;;;5111669;28;20626;-82
2022/11/21 09:57:18;;;;;;;2.17;0.97;;;;;;;;;;5111423;28;20215;-81
2022/11/21 09:59:45;;;;;;;4.60;1.57;;;;;;;;;;5112085;28;20669;-80
2022/11/21 10:02:15;;;;;;;2.27;1.43;;;;;;;;;;5111713;28;20227;-81
2022/11/21 10:04:42;;;;;;;3.37;1.50;;;;;;;;;;5111349;28;20232;-81
2022/11/21 10:07:13;;;;;;;4.43;1.30;;;;;;;;;;5111653;28;20208;-81
2022/11/21 10:09:47;;;;;;;2.77;0.97;;;;;;;;;;5111340;28;20214;-81
2022/11/21 10:12:38;;;;;;;3.90;1.47;;;;;;;;;;5111540;28;20199;-81
2022/11/21 10:15:16;;;;;;;1.60;0.97;;;;;;;;;;5111477;28;20264;-81
2022/11/21 10:17:53;;;;;;;1.23;1.00;;;;;;;;;;5110488;28;20195;-81
2022/11/21 10:20:31;;;;;;;2.50;1.40;;;;;;;;;;5090736;28;20296;-81
2022/11/21 10:23:21;;;;;;;5.27;1.30;;;;;;;;;;5105709;28;20204;-81
2022/11/21 10:25:52;;;;;;;2.03;1.47;;;;;;;;;;5111348;28;20219;-81
2022/11/21 10:28:22;;;;;;;1.43;1.00;;;;;;;;;;5111069;28;20198;-82
2022/11/21 10:30:51;;;;;;;3.83;1.10;;;;;;;;;;5110810;28;20290;-81
2022/11/21 10:33:25;;;;;;;2.57;0.80;;;;;;;;;;5111208;28;20215;-81
2022/11/21 10:35:54;;;;;;;2.43;1.00;;;;;;;;;;5111053;28;20709;-81
2022/11/21 10:38:22;;;;;;;2.90;1.03;;;;;;;;;;5111106;28;20260;-81
2022/11/21 10:40:51;;;;;;;1.17;1.07;;;;;;;;;;5111036;28;20204;-81
2022/11/21 10:46:10;;;;;;;1.83;0.83;;;;;;;;;;5110977;28;20222;-81
2022/11/21 10:48:38;;;;;;;3.07;1.27;;;;;;;;;;5110242;28;20211;-81
2022/11/21 10:51:19;;;;;;;2.97;1.10;;;;;;;;;;5110831;28;20693;-81
2022/11/21 10:56:38;;;;;;;1.90;1.40;;;;;;;;;;5074382;28;20268;-81
2022/11/21 10:59:13;;;;;;;1.43;1.20;;;;;;;;;;5111074;28;20210;-81
2022/11/21 11:01:39;;;;;;;1.80;1.03;;;;;;;;;;5111067;28;20282;-82
2022/11/21 11:04:16;;;;;;;4.07;1.20;;;;;;;;;;5110549;28;20699;-79
2022/11/21 11:06:45;;;;;;;1.00;0.90;;;;;;;;;;5111120;28;20195;-81
2022/11/21 11:09:23;;;;;;;1.50;1.40;;;;;;;;;;5110793;28;20202;-82
2022/11/21 11:11:50;;;;;;;1.13;1.03;;;;;;;;;;5097116;28;20211;-81
2022/11/21 11:14:29;;;;;;;2.53;1.07;;;;;;;;;;5110951;28;20207;-81
2022/11/21 11:16:56;;;;;;;0.87;0.60;;;;;;;;;;5110430;28;20207;-82
2022/11/21 11:19:27;;;;;;;2.13;1.37;;;;;;;;;;5110702;28;20633;-81
2022/11/21 11:21:55;;;;;;;4.27;1.00;;;;;;;;;;5110971;28;20203;-80
2022/11/21 11:24:25;;;;;;;3.77;0.80;;;;;;;;;;5110488;28;20705;-80
2022/11/21 11:26:57;;;;;;;0.90;0.80;;;;;;;;;;5110593;28;20286;-82
2022/11/21 11:29:25;;;;;;;1.53;1.43;;;;;;;;;;5112193;28;20214;-82
2022/11/21 11:31:55;;;;;;;1.33;1.03;;;;;;;;;;5114730;28;20206;-81
2022/11/21 11:34:24;;;;;;;2.60;1.10;;;;;;;;;;5114678;28;20200;-82
2022/11/21 11:36:56;;;;;;;3.13;1.00;;;;;;;;;;5114743;28;20366;-80
2022/11/21 11:39:35;;;;;;;0.83;0.80;;;;;;;;;;5114144;28;20191;-83
2022/11/21 11:48:15;;;;;;;0.40;0.40;;;;;;;;;;5105237;28;20225;-80
2022/11/21 11:50:46;;;;;;;1.17;0.77;;;;;;;;;;5114405;28;20199;-80
2022/11/21 11:53:16;;;;;;;1.80;0.80;;;;;;;;;;5114462;28;20211;-80
2022/11/21 11:55:46;;;;;;;1.90;0.70;;;;;;;;;;5114158;28;20203;-80
2022/11/21 11:58:20;;;;;;;2.33;0.80;;;;;;;;;;5112695;28;20636;-81
2022/11/21 12:00:51;;;;;;;0.70;0.70;;;;;;;;;;5104121;28;20214;-81
2022/11/21 12:03:21;;;;;;;0.80;0.80;;;;;;;;;;5114229;28;20233;-79
2022/11/21 12:06:04;;;;;;;2.20;1.20;;;;;;;;;;5113621;28;20715;-80
2022/11/21 12:08:39;;;;;;;1.10;0.90;;;;;;;;;;5101134;28;20242;-82
2022/11/21 12:13:57;;;;;;;0.77;0.77;;;;;;;;;;5114285;28;20214;-81
2022/11/21 12:16:25;;;;;;;2.37;1.10;;;;;;;;;;5113596;28;20207;-80
2022/11/21 12:18:56;;;;;;;0.80;0.80;;;;;;;;;;5113913;28;20230;-81
2022/11/21 12:21:24;;;;;;;1.13;0.97;;;;;;;;;;5113876;28;20213;-80
2022/11/21 12:23:51;;;;;;;1.40;1.30;;;;;;;;;;5113513;28;20638;-81
2022/11/21 12:26:31;;;;;;;2.30;0.80;;;;;;;;;;5113429;28;20229;-80
2022/11/21 12:29:07;;;;;;;0.67;0.67;;;;;;;;;;5113658;28;20206;-81
2022/11/21 12:31:42;;;;;;;2.23;0.50;;;;;;;;;;5113280;28;20203;-84
2022/11/21 12:34:17;;;;;;;1.93;1.17;;;;;;;;;;5113636;28;20202;-81
2022/11/21 12:36:51;;;;;;;2.00;1.17;;;;;;;;;;5113763;28;20205;-80
2022/11/21 12:39:56;;;;;;;1.73;0.50;;;;;;;;;;5113403;28;20202;-80
2022/11/21 12:42:49;;;;;;;0.63;0.63;;;;;;;;;;5112206;28;20202;-81
2022/11/21 12:45:34;;;;;;;2.00;0.70;;;;;;;;;;5112791;28;20229;-81
2022/11/21 12:57:10;;;;;;;1.43;0.90;;;;;;;;;;5039607;28;20284;-81
2022/11/21 12:59:45;;;;;;;2.00;0.60;;;;;;;;;;5048194;28;20262;-81
2022/11/21 13:02:23;;;;;;;3.30;1.03;;;;;;;;;;5083882;28;20610;-81
2022/11/21 13:04:50;;;;;;;2.80;1.27;;;;;;;;;;5112446;28;20233;-81
2022/11/21 13:07:18;;;;;;;2.77;1.50;;;;;;;;;;5112889;28;20237;-82
2022/11/21 13:09:49;;;;;;;1.90;1.30;;;;;;;;;;5112710;28;20904;-81
2022/11/21 13:12:21;;;;;;;1.30;1.13;;;;;;;;;;5112803;28;20597;-80
2022/11/21 13:14:53;;;;;;;1.50;1.10;;;;;;;;;;5112785;28;20250;-80
2022/11/21 13:17:33;;;;;;;1.00;1.00;;;;;;;;;;5112586;28;20212;-80
2022/11/21 13:20:02;;;;;;;2.83;1.03;;;;;;;;;;5112501;28;20202;-80
2022/11/21 13:22:48;;;;;;;3.07;1.00;;;;;;;;;;5112976;28;20230;-81
2022/11/21 13:25:37;;;;;;;0.90;0.90;;;;;;;;;;5111972;28;20221;-80
2022/11/21 13:28:34;;;;;;;1.43;1.10;;;;;;;;;;5112691;28;20202;-81
2022/11/21 13:31:17;;;;;;;1.30;1.20;;;;;;;;;;5112694;28;20652;-79
2022/11/21 13:33:51;;;;;;;4.23;2.10;;;;;;;;;;5095434;28;20597;-81
2022/11/21 13:36:37;;;;;;;1.50;1.40;;;;;;;;;;5111776;28;20210;-81
2022/11/21 13:39:26;;;;;;;2.20;1.20;;;;;;;;;;5112578;28;20247;-81
2022/11/21 13:44:52;;;;;;;1.37;1.27;;;;;;;;;;5111990;28;20219;-81
2022/11/21 13:47:45;;;;;;;0.87;0.87;;;;;;;;;;5112269;28;20213;-80
2022/11/21 13:50:20;;;;;;;3.07;1.40;;;;;;;;;;5112113;28;20600;-80
2022/11/21 13:52:51;;;;;;;1.83;1.27;;;;;;;;;;5110768;28;20193;-81
2022/11/21 13:55:45;;;;;;;2.57;1.77;;;;;;;;;;5112171;28;20207;-81
2022/11/21 13:58:23;;;;;;;2.30;1.53;;;;;;;;;;5098241;28;20230;-81
2022/11/21 14:01:11;;;;;;;1.60;1.50;;;;;;;;;;5111728;28;20595;-81
2022/11/21 14:03:48;;;;;;;3.17;1.80;;;;;;;;;;5112440;28;20225;-80
2022/11/21 14:06:23;;;;;;;2.13;1.37;;;;;;;;;;5111431;28;20264;-80
2022/11/21 14:09:20;;;;;;;1.73;1.63;;;;;;;;;;5111798;28;20199;-81
2022/11/21 14:11:48;;;;;;;1.37;1.27;;;;;;;;;;5108695;28;20209;-80
2022/11/21 14:14:36;;;;;;;1.10;1.10;;;;;;;;;;5111582;28;20209;-80
2022/11/21 14:17:14;;;;;;;2.37;1.60;;;;;;;;;;5099090;28;20200;-81
2022/11/21 14:19:41;;;;;;;1.90;1.80;;;;;;;;;;5111764;28;20685;-80
2022/11/21 14:22:15;;;;;;;2.07;1.60;;;;;;;;;;5111154;28;20260;-80
2022/11/21 14:24:42;;;;;;;1.63;1.50;;;;;;;;;;5111659;28;20200;-80
2022/11/21 14:27:16;;;;;;;1.87;1.77;;;;;;;;;;5111124;28;20223;-81
2022/11/21 14:29:47;;;;;;;2.57;1.60;;;;;;;;;;5111265;28;20578;-80
2022/11/21 14:32:14;;;;;;;2.50;2.30;;;;;;;;;;5111547;28;20561;-81
2022/11/21 14:34:41;;;;;;;1.70;1.47;;;;;;;;;;5111100;28;20207;-80
2022/11/21 14:37:07;;;;;;;2.77;1.40;;;;;;;;;;5111104;28;20200;-83
2022/11/21 14:39:35;;;;;;;2.60;1.37;;;;;;;;;;5111206;28;20674;-80
2022/11/21 14:42:03;;;;;;;1.40;1.30;;;;;;;;;;5111521;28;20201;-80
2022/11/21 14:44:30;;;;;;;1.70;1.20;;;;;;;;;;5110733;28;20192;-80
2022/11/21 14:47:09;;;;;;;1.50;1.40;;;;;;;;;;5111103;28;20227;-81
2022/11/21 14:49:35;;;;;;;1.00;1.00;;;;;;;;;;5110796;28;20204;-81
2022/11/21 14:52:12;;;;;;;4.80;1.30;;;;;;;;;;5111285;28;20565;-80
2022/11/21 14:54:43;;;;;;;1.20;1.20;;;;;;;;;;5110580;28;20213;-80
2022/11/21 14:57:20;;;;;;;1.13;1.03;;;;;;;;;;5111262;28;20207;-80
2022/11/21 14:59:47;;;;;;;1.93;1.30;;;;;;;;;;5110863;28;20206;-80
2022/11/21 15:02:18;;;;;;;1.00;1.00;;;;;;;;;;5110613;28;20239;-80
2022/11/21 15:04:46;;;;;;;1.53;1.43;;;;;;;;;;5110208;28;20214;-81
2022/11/21 15:07:20;;;;;;;2.33;1.97;;;;;;;;;;5110851;28;20231;-80
2022/11/21 15:09:47;;;;;;;1.37;1.27;;;;;;;;;;5110492;28;20202;-81
2022/11/21 15:12:19;;;;;;;1.73;1.53;;;;;;;;;;5111100;28;20225;-80
2022/11/21 15:14:49;;;;;;;1.17;1.17;;;;;;;;;;5110317;28;20206;-81
2022/11/21 15:17:19;;;;;;;1.43;1.33;;;;;;;;;;5109231;28;21719;-80
2022/11/21 15:19:46;;;;;;;1.10;1.10;;;;;;;;;;5106613;28;20230;-80
2022/11/21 15:22:28;;;;;;;1.70;1.60;;;;;;;;;;5109675;28;20455;-81
2022/11/21 15:25:06;;;;;;;1.70;1.60;;;;;;;;;;5109591;28;20208;-80
2022/11/21 15:27:35;;;;;;;1.50;1.40;;;;;;;;;;5109836;28;20203;-81
2022/11/21 15:30:15;;;;;;;4.87;3.10;;;;;;;;;;5099425;28;20196;-79
2022/11/21 15:33:08;;;;;;;2.77;1.73;;;;;;;;;;5101691;28;20210;-79
2022/11/21 15:35:49;;;;;;;1.23;1.13;;;;;;;;;;5107988;28;20249;-81